Time;durP1;ratioP1;P1;durP2;ratioP2;P2;SDS_P1;SDS_P2;PMS_P1;PMS_P2;Temp;Humidity;BMP_temperature;BMP_pressure;BME280_temperature;BME280_humidity;BME280_pressure;Samples;Min_cycle;Max_cycle;Signal;HPM_P1;HPM_P2
2023/07/21 00:02:08;;;;;;;;;3.75;2.00;;;;;;;;5099965;27;45598;-49
2023/07/21 00:04:34;;;;;;;;;4.50;3.00;;;;;;;;5100046;27;45277;-49
2023/07/21 00:06:59;;;;;;;;;2.00;2.00;;;;;;;;5099724;27;45422;-46
2023/07/21 00:09:25;;;;;;;;;2.75;2.75;;;;;;;;5100338;27;45268;-48
2023/07/21 00:11:50;;;;;;;;;2.00;2.00;;;;;;;;5099695;27;46326;-46
2023/07/21 00:14:16;;;;;;;;;3.75;2.50;;;;;;;;5099706;27;45294;-47
2023/07/21 00:16:42;;;;;;;;;3.20;3.00;;;;;;;;5099881;27;45307;-46
2023/07/21 00:19:07;;;;;;;;;2.50;2.00;;;;;;;;5099188;27;45219;-46
2023/07/21 00:21:34;;;;;;;;;2.00;2.00;;;;;;;;5081239;27;46188;-47
2023/07/21 00:23:59;;;;;;;;;2.40;2.40;;;;;;;;5099588;27;45447;-48
2023/07/21 00:26:24;;;;;;;;;1.50;1.50;;;;;;;;5099792;27;45270;-47
2023/07/21 00:28:50;;;;;;;;;2.50;2.00;;;;;;;;5099765;27;45449;-45
2023/07/21 00:31:15;;;;;;;;;2.00;2.00;;;;;;;;5099582;27;46593;-50
2023/07/21 00:33:40;;;;;;;;;3.00;1.00;;;;;;;;5099163;27;45322;-46
2023/07/21 00:36:07;;;;;;;;;2.00;2.00;;;;;;;;5099452;27;45364;-47
2023/07/21 00:38:32;;;;;;;;;1.00;1.00;;;;;;;;5099822;27;45372;-44
2023/07/21 00:40:57;;;;;;;;;2.50;2.00;;;;;;;;5099292;27;47332;-47
2023/07/21 00:43:23;;;;;;;;;3.75;2.00;;;;;;;;5099564;27;45401;-47
2023/07/21 00:45:48;;;;;;;;;2.00;1.00;;;;;;;;5099395;27;45248;-42
2023/07/21 00:48:16;;;;;;;;;2.00;2.00;;;;;;;;5099356;27;45411;-49
2023/07/21 00:50:43;;;;;;;;;2.00;2.00;;;;;;;;5099398;27;45617;-56
2023/07/21 00:53:09;;;;;;;;;3.60;1.80;;;;;;;;5099091;27;45288;-46
2023/07/21 00:55:35;;;;;;;;;1.50;1.50;;;;;;;;5099162;27;45288;-45
2023/07/21 00:58:00;;;;;;;;;2.00;1.00;;;;;;;;5099484;27;45314;-46
2023/07/21 01:00:25;;;;;;;;;1.00;1.00;;;;;;;;5098505;27;45441;-44
2023/07/21 01:02:50;;;;;;;;;2.00;2.00;;;;;;;;5099169;27;45307;-47
2023/07/21 01:05:17;;;;;;;;;4.00;2.00;;;;;;;;5099113;27;45203;-46
2023/07/21 01:07:43;;;;;;;;;2.00;2.00;;;;;;;;5097744;27;45286;-46
2023/07/21 01:10:09;;;;;;;;;2.00;2.00;;;;;;;;5080564;27;46990;-43
2023/07/21 01:12:35;;;;;;;;;4.80;3.60;;;;;;;;5098708;27;45379;-45
2023/07/21 01:15:00;;;;;;;;;4.00;3.00;;;;;;;;5099078;27;45690;-44
2023/07/21 01:17:26;;;;;;;;;3.00;2.00;;;;;;;;5099197;27;45397;-44
2023/07/21 01:19:51;;;;;;;;;3.00;2.00;;;;;;;;5098726;27;47257;-44
2023/07/21 01:22:31;;;;;;;;;3.00;2.00;;;;;;;;5098725;27;45424;-45
2023/07/21 01:24:56;;;;;;;;;3.00;1.60;;;;;;;;5098913;27;45357;-47
2023/07/21 01:27:22;;;;;;;;;3.25;2.00;;;;;;;;5098877;27;45421;-46
2023/07/21 01:29:49;;;;;;;;;2.75;2.00;;;;;;;;5098537;27;45260;-47
2023/07/21 01:32:15;;;;;;;;;1.20;1.20;;;;;;;;5098348;27;45345;-48
2023/07/21 01:34:41;;;;;;;;;2.00;2.00;;;;;;;;5098883;27;45219;-47
2023/07/21 01:37:08;;;;;;;;;2.00;2.00;;;;;;;;5098763;27;45404;-45
2023/07/21 01:39:35;;;;;;;;;3.00;3.00;;;;;;;;5098296;27;45385;-48
2023/07/21 01:42:00;;;;;;;;;2.00;2.00;;;;;;;;5098439;27;45431;-46
2023/07/21 01:44:25;;;;;;;;;4.50;2.00;;;;;;;;5098514;27;45413;-46
2023/07/21 01:46:52;;;;;;;;;3.00;1.25;;;;;;;;5098153;27;45441;-47
2023/07/21 01:49:18;;;;;;;;;4.25;2.00;;;;;;;;5098324;27;46469;-46
2023/07/21 01:51:43;;;;;;;;;1.75;1.75;;;;;;;;5098102;27;45362;-48
2023/07/21 01:54:11;;;;;;;;;2.25;2.25;;;;;;;;5098487;27;45365;-47
2023/07/21 01:56:46;;;;;;;;;2.50;2.50;;;;;;;;5098507;27;45523;-45
2023/07/21 01:59:12;;;;;;;;;1.75;1.75;;;;;;;;5097868;27;46238;-47
2023/07/21 02:01:38;;;;;;;;;2.00;2.00;;;;;;;;5098350;27;45389;-45
2023/07/21 02:04:03;;;;;;;;;4.75;3.00;;;;;;;;5097533;27;45350;-47
2023/07/21 02:06:29;;;;;;;;;3.75;3.00;;;;;;;;5098562;27;45232;-48
2023/07/21 02:08:54;;;;;;;;;2.75;2.75;;;;;;;;5097874;27;46157;-46
2023/07/21 02:11:22;;;;;;;;;2.50;2.25;;;;;;;;5097927;27;45446;-46
2023/07/21 02:13:47;;;;;;;;;2.00;2.00;;;;;;;;5098001;27;45291;-49
2023/07/21 02:16:12;;;;;;;;;3.75;3.75;;;;;;;;5098297;27;45372;-48
2023/07/21 02:18:39;;;;;;;;;3.00;2.25;;;;;;;;5097744;27;46977;-48
2023/07/21 02:21:04;;;;;;;;;1.80;1.80;;;;;;;;5097805;27;45478;-48
2023/07/21 02:23:31;;;;;;;;;2.00;2.00;;;;;;;;5097974;27;45429;-46
2023/07/21 02:25:56;;;;;;;;;2.00;2.00;;;;;;;;5097993;27;45441;-48
2023/07/21 02:28:21;;;;;;;;;2.00;2.00;;;;;;;;5097549;27;46355;-51
2023/07/21 02:30:55;;;;;;;;;3.50;3.00;;;;;;;;5097762;27;45370;-46
2023/07/21 02:33:21;;;;;;;;;2.00;2.00;;;;;;;;5097814;27;45362;-48
2023/07/21 02:35:47;;;;;;;;;2.00;2.00;;;;;;;;5097954;27;45334;-46
2023/07/21 02:38:12;;;;;;;;;3.00;1.75;;;;;;;;5079251;27;46286;-49
2023/07/21 02:40:37;;;;;;;;;2.00;2.00;;;;;;;;5097670;27;45404;-48
2023/07/21 02:43:02;;;;;;;;;2.50;2.50;;;;;;;;5097638;27;45416;-51
2023/07/21 02:45:27;;;;;;;;;1.00;1.00;;;;;;;;5097967;27;45432;-51
2023/07/21 02:47:53;;;;;;;;;2.75;2.00;;;;;;;;5097160;27;46240;-45
2023/07/21 02:50:19;;;;;;;;;1.00;1.00;;;;;;;;5097652;27;45326;-48
2023/07/21 02:52:44;;;;;;;;;3.00;1.00;;;;;;;;5097570;27;45295;-48
2023/07/21 02:55:09;;;;;;;;;3.00;1.00;;;;;;;;5079422;27;45354;-50
2023/07/21 02:57:34;;;;;;;;;1.00;1.00;;;;;;;;5097237;27;46374;-48
2023/07/21 03:00:05;;;;;;;;;1.25;1.25;;;;;;;;5097040;27;45296;-47
2023/07/21 03:02:34;;;;;;;;;2.00;2.00;;;;;;;;5097413;27;45327;-46
2023/07/21 03:05:00;;;;;;;;;1.75;1.75;;;;;;;;5097398;27;45431;-46
2023/07/21 03:07:25;;;;;;;;;2.50;1.50;;;;;;;;5097069;27;45339;-44
2023/07/21 03:09:50;;;;;;;;;2.00;2.00;;;;;;;;5097333;27;45308;-47
2023/07/21 03:12:15;;;;;;;;;2.25;1.25;;;;;;;;5097232;27;45270;-42
2023/07/21 03:14:40;;;;;;;;;1.25;1.25;;;;;;;;5097445;27;45302;-45
2023/07/21 03:17:06;;;;;;;;;1.75;1.75;;;;;;;;5099084;27;45293;-43
2023/07/21 03:19:31;;;;;;;;;0.25;0.25;;;;;;;;5100852;27;45168;-44
2023/07/21 03:21:57;;;;;;;;;1.25;1.25;;;;;;;;5100842;27;45287;-47
2023/07/21 03:24:23;;;;;;;;;2.00;2.00;;;;;;;;5100912;27;45479;-49
2023/07/21 03:26:49;;;;;;;;;1.25;1.25;;;;;;;;5100642;27;45394;-46
2023/07/21 03:29:15;;;;;;;;;2.00;2.00;;;;;;;;5099513;27;45279;-48
2023/07/21 03:31:41;;;;;;;;;4.00;1.25;;;;;;;;5100324;27;45397;-49
2023/07/21 03:34:06;;;;;;;;;2.00;2.00;;;;;;;;5100765;27;45392;-48
2023/07/21 03:36:31;;;;;;;;;41.67;32.33;;;;;;;;5100151;27;45954;-48
2023/07/21 03:38:56;;;;;;;;;17.00;13.33;;;;;;;;5100270;27;45281;-47
2023/07/21 03:41:22;;;;;;;;;1.00;1.00;;;;;;;;5100777;27;45433;-44
2023/07/21 03:43:47;;;;;;;;;22.67;17.00;;;;;;;;5082008;27;45435;-41
2023/07/21 03:46:13;;;;;;;;;3.25;2.00;;;;;;;;5100287;27;45320;-49
2023/07/21 03:48:38;;;;;;;;;3.00;3.00;;;;;;;;5100185;27;45326;-47
2023/07/21 03:51:05;;;;;;;;;2.00;2.00;;;;;;;;5099879;27;45406;-48
2023/07/21 03:53:30;;;;;;;;;2.75;2.00;;;;;;;;5100565;27;45428;-46
2023/07/21 03:55:55;;;;;;;;;2.00;2.00;;;;;;;;5099943;27;45351;-43
2023/07/21 03:58:21;;;;;;;;;3.50;2.00;;;;;;;;5099406;27;45309;-44
2023/07/21 04:00:46;;;;;;;;;2.75;1.25;;;;;;;;5100149;27;45395;-40
2023/07/21 04:03:12;;;;;;;;;3.00;3.00;;;;;;;;5100346;27;45240;-48
2023/07/21 04:05:37;;;;;;;;;3.00;3.00;;;;;;;;5099848;27;46247;-45
2023/07/21 04:08:03;;;;;;;;;2.00;2.00;;;;;;;;5099811;27;45591;-46
2023/07/21 04:10:29;;;;;;;;;4.00;3.00;;;;;;;;5100073;27;45348;-47
2023/07/21 04:12:54;;;;;;;;;3.25;3.25;;;;;;;;5099910;27;45347;-45
2023/07/21 04:15:19;;;;;;;;;1.25;1.25;;;;;;;;5099697;27;46874;-46
2023/07/21 04:17:45;;;;;;;;;2.25;1.00;;;;;;;;5081388;27;45412;-45
2023/07/21 04:20:10;;;;;;;;;2.25;2.25;;;;;;;;5099732;27;45246;-47
2023/07/21 04:22:36;;;;;;;;;2.50;2.50;;;;;;;;5099907;27;45394;-42
2023/07/21 04:25:02;;;;;;;;;2.75;1.25;;;;;;;;5099572;27;46078;-46
2023/07/21 04:27:30;;;;;;;;;3.00;2.00;;;;;;;;5098971;27;45274;-46
2023/07/21 04:29:55;;;;;;;;;2.00;2.00;;;;;;;;5099723;27;45298;-42
2023/07/21 04:32:20;;;;;;;;;3.75;2.25;;;;;;;;5099400;27;45337;-46
2023/07/21 04:34:46;;;;;;;;;2.50;1.00;;;;;;;;5098867;27;45216;-45
2023/07/21 04:37:13;;;;;;;;;2.00;2.00;;;;;;;;5099587;27;45429;-43
2023/07/21 04:39:38;;;;;;;;;3.50;2.00;;;;;;;;5099431;27;45444;-41
2023/07/21 04:42:04;;;;;;;;;1.00;1.00;;;;;;;;5099856;27;45395;-45
2023/07/21 04:44:29;;;;;;;;;1.25;1.25;;;;;;;;5099112;27;45770;-44
2023/07/21 04:46:54;;;;;;;;;2.00;2.00;;;;;;;;5099536;27;45427;-41
2023/07/21 04:49:19;;;;;;;;;3.00;1.00;;;;;;;;5099538;27;45446;-43
2023/07/21 04:51:44;;;;;;;;;2.75;2.75;;;;;;;;5099562;27;45482;-45
2023/07/21 04:54:11;;;;;;;;;2.00;2.00;;;;;;;;5099090;27;46315;-44
2023/07/21 04:56:37;;;;;;;;;2.75;2.75;;;;;;;;5099139;27;45333;-44
2023/07/21 04:59:02;;;;;;;;;4.00;2.50;;;;;;;;5099424;27;45393;-42
2023/07/21 05:01:27;;;;;;;;;4.00;2.25;;;;;;;;5099355;27;45255;-42
2023/07/21 05:03:52;;;;;;;;;2.75;2.00;;;;;;;;5098848;27;47151;-42
2023/07/21 05:06:17;;;;;;;;;3.75;1.50;;;;;;;;5099067;27;45337;-48
2023/07/21 05:08:43;;;;;;;;;3.00;3.00;;;;;;;;5099164;27;45373;-45
2023/07/21 05:11:09;;;;;;;;;2.00;2.00;;;;;;;;5098587;27;45335;-41
2023/07/21 05:13:35;;;;;;;;;0.25;0.25;;;;;;;;5097900;27;45299;-46
2023/07/21 05:16:00;;;;;;;;;3.00;1.50;;;;;;;;5080125;27;45241;-48
2023/07/21 05:18:26;;;;;;;;;0.50;0.25;;;;;;;;5099001;27;45336;-44
2023/07/21 05:20:51;;;;;;;;;2.00;2.00;;;;;;;;5099166;27;45257;-44
2023/07/21 05:23:16;;;;;;;;;1.00;1.00;;;;;;;;5098585;27;46153;-43
2023/07/21 05:25:42;;;;;;;;;1.00;1.00;;;;;;;;5098865;27;45432;-40
2023/07/21 05:28:08;;;;;;;;;3.50;2.50;;;;;;;;5098671;27;45223;-43
2023/07/21 05:30:34;;;;;;;;;4.00;2.50;;;;;;;;5098935;27;45402;-44
2023/07/21 05:32:59;;;;;;;;;2.00;2.00;;;;;;;;5098499;27;46232;-46
2023/07/21 05:35:26;;;;;;;;;1.00;1.00;;;;;;;;5098752;27;45319;-45
2023/07/21 05:37:52;;;;;;;;;2.00;2.00;;;;;;;;5098680;27;45421;-47
2023/07/21 05:40:17;;;;;;;;;2.00;2.00;;;;;;;;5097639;27;45519;-46
2023/07/21 05:42:46;;;;;;;;;3.75;3.00;;;;;;;;5098366;27;46128;-43
2023/07/21 05:45:11;;;;;;;;;3.00;3.00;;;;;;;;5098419;27;45336;-46
2023/07/21 05:47:37;;;;;;;;;3.00;3.00;;;;;;;;5098423;27;45294;-46
2023/07/21 05:50:02;;;;;;;;;2.00;2.00;;;;;;;;5098400;27;45391;-48
2023/07/21 05:52:27;;;;;;;;;3.25;2.25;;;;;;;;5098207;27;45430;-46
2023/07/21 05:54:53;;;;;;;;;2.00;2.00;;;;;;;;5098122;27;45338;-45
2023/07/21 05:57:18;;;;;;;;;2.75;2.75;;;;;;;;5098132;27;45393;-46
2023/07/21 05:59:45;;;;;;;;;4.00;2.25;;;;;;;;5098545;27;45415;-49
2023/07/21 06:02:10;;;;;;;;;2.00;2.00;;;;;;;;5098003;27;46454;-48
2023/07/21 06:04:35;;;;;;;;;1.00;1.00;;;;;;;;5098056;27;45406;-45
2023/07/21 06:07:01;;;;;;;;;3.00;2.50;;;;;;;;5098586;27;45391;-48
2023/07/21 06:09:26;;;;;;;;;5.75;5.75;;;;;;;;5098280;27;45229;-47
2023/07/21 06:11:51;;;;;;;;;3.00;3.00;;;;;;;;5079616;27;47222;-49
2023/07/21 06:14:16;;;;;;;;;2.00;2.00;;;;;;;;5097781;27;45310;-48
2023/07/21 06:16:42;;;;;;;;;2.50;2.50;;;;;;;;5098201;27;45422;-48
2023/07/21 06:19:07;;;;;;;;;4.00;2.00;;;;;;;;5098309;27;45349;-44
2023/07/21 06:21:32;;;;;;;;;1.00;1.00;;;;;;;;5097646;27;46294;-47
2023/07/21 06:23:57;;;;;;;;;1.00;1.00;;;;;;;;5097969;27;45327;-46
2023/07/21 06:26:22;;;;;;;;;2.00;2.00;;;;;;;;5097047;27;45333;-45
2023/07/21 06:28:48;;;;;;;;;2.25;2.25;;;;;;;;5098074;27;45308;-48
2023/07/21 06:31:14;;;;;;;;;6.00;4.50;;;;;;;;5097652;27;45423;-50
2023/07/21 06:33:39;;;;;;;;;2.00;2.00;;;;;;;;5097345;27;45387;-47
2023/07/21 06:36:05;;;;;;;;;3.00;3.00;;;;;;;;5097774;27;45295;-47
2023/07/21 06:38:31;;;;;;;;;2.50;2.50;;;;;;;;5098013;27;45260;-49
2023/07/21 06:40:56;;;;;;;;;3.00;3.00;;;;;;;;5097383;27;47030;-46
2023/07/21 06:43:21;;;;;;;;;2.00;2.00;;;;;;;;5097513;27;45397;-46
2023/07/21 06:45:46;;;;;;;;;4.00;4.00;;;;;;;;5097453;27;45232;-45
2023/07/21 06:48:12;;;;;;;;;3.50;2.50;;;;;;;;5097933;27;45528;-47
2023/07/21 06:50:38;;;;;;;;;3.00;2.50;;;;;;;;5098673;27;47030;-42
2023/07/21 06:53:05;;;;;;;;;4.75;3.00;;;;;;;;5101090;27;45392;-47
2023/07/21 06:55:31;;;;;;;;;3.50;2.50;;;;;;;;5101263;27;45311;-44
2023/07/21 06:57:56;;;;;;;;;2.50;2.50;;;;;;;;5101263;27;45380;-47
2023/07/21 07:00:23;;;;;;;;;2.75;2.00;;;;;;;;5099145;27;45383;-49
2023/07/21 07:02:49;;;;;;;;;4.00;3.50;;;;;;;;5100744;27;45484;-46
2023/07/21 07:05:14;;;;;;;;;4.25;3.75;;;;;;;;5100610;27;45433;-43
2023/07/21 07:07:40;;;;;;;;;4.50;4.00;;;;;;;;5100927;27;45382;-48
2023/07/21 07:10:06;;;;;;;;;3.75;3.50;;;;;;;;5100282;27;47259;-44
2023/07/21 07:12:32;;;;;;;;;4.00;2.60;;;;;;;;5100751;27;45257;-46
2023/07/21 07:14:58;;;;;;;;;5.50;3.75;;;;;;;;5099484;27;45234;-46
2023/07/21 07:17:24;;;;;;;;;3.00;3.00;;;;;;;;5100724;27;45420;-45
2023/07/21 07:19:49;;;;;;;;;2.00;2.00;;;;;;;;5100356;27;46317;-47
2023/07/21 07:22:14;;;;;;;;;4.00;4.00;;;;;;;;5100420;27;45424;-45
2023/07/21 07:24:40;;;;;;;;;5.50;4.00;;;;;;;;5082454;27;45353;-44
2023/07/21 07:27:05;;;;;;;;;5.00;5.00;;;;;;;;5100762;27;45362;-49
2023/07/21 07:29:30;;;;;;;;;5.50;3.75;;;;;;;;5100453;27;46560;-44
2023/07/21 07:31:55;;;;;;;;;3.75;2.00;;;;;;;;5100193;27;45404;-41
2023/07/21 07:34:21;;;;;;;;;5.50;5.00;;;;;;;;5100239;27;45300;-46
2023/07/21 07:36:46;;;;;;;;;4.75;3.75;;;;;;;;5100626;27;45417;-42
2023/07/21 07:39:11;;;;;;;;;3.75;3.00;;;;;;;;5099539;27;45489;-47
2023/07/21 07:41:37;;;;;;;;;4.00;4.00;;;;;;;;5099983;27;45414;-48
2023/07/21 07:44:02;;;;;;;;;6.00;4.75;;;;;;;;5100092;27;45377;-48
2023/07/21 07:46:27;;;;;;;;;5.75;4.00;;;;;;;;5099580;27;45416;-44
2023/07/21 07:48:52;;;;;;;;;6.75;4.00;;;;;;;;5099892;27;45393;-45
2023/07/21 07:51:18;;;;;;;;;3.50;3.00;;;;;;;;5102005;27;45398;-46
2023/07/21 07:53:43;;;;;;;;;4.25;2.75;;;;;;;;5094236;27;45339;-45
2023/07/21 07:56:12;;;;;;;;;2.00;2.00;;;;;;;;5097042;27;45473;-44
2023/07/21 07:58:37;;;;;;;;;4.00;3.60;;;;;;;;5096284;27;45487;-44
2023/07/21 08:01:03;;;;;;;;;5.75;3.50;;;;;;;;5096775;27;45608;-45
2023/07/21 08:03:29;;;;;;;;;7.25;4.00;;;;;;;;5095588;27;45476;-45
2023/07/21 08:05:54;;;;;;;;;2.50;2.50;;;;;;;;5077899;27;45513;-49
2023/07/21 08:08:22;;;;;;;;;6.00;4.25;;;;;;;;5096359;27;46283;-46
2023/07/21 08:10:47;;;;;;;;;3.40;3.00;;;;;;;;5096351;27;45335;-49
2023/07/21 08:13:13;;;;;;;;;5.00;5.00;;;;;;;;5096469;27;45967;-49
2023/07/21 08:15:42;;;;;;;;;4.00;3.00;;;;;;;;5096572;27;45312;-46
2023/07/21 08:18:07;;;;;;;;;8.80;7.60;;;;;;;;5096020;27;45479;-50
2023/07/21 08:20:35;;;;;;;;;8.50;6.25;;;;;;;;5096562;27;45350;-46
2023/07/21 08:23:01;;;;;;;;;6.00;4.40;;;;;;;;5096315;27;45516;-44
2023/07/21 08:25:26;;;;;;;;;6.75;3.00;;;;;;;;5096889;27;45448;-43
2023/07/21 08:27:51;;;;;;;;;2.00;2.00;;;;;;;;5095921;27;46163;-48
2023/07/21 08:30:16;;;;;;;;;12.50;12.00;;;;;;;;5096336;27;45318;-46
2023/07/21 08:32:42;;;;;;;;;10.25;8.25;;;;;;;;5077605;27;45466;-43
2023/07/21 08:35:08;;;;;;;;;4.00;4.00;;;;;;;;5081138;27;45350;-41
2023/07/21 08:37:33;;;;;;;;;5.00;3.00;;;;;;;;5078505;27;46037;-46
2023/07/21 08:39:59;;;;;;;;;6.00;5.00;;;;;;;;5075764;27;45385;-48
2023/07/21 08:42:24;;;;;;;;;5.00;3.00;;;;;;;;5076176;27;45534;-47
2023/07/21 08:44:52;;;;;;;;;6.50;6.50;;;;;;;;5082539;27;45500;-48
2023/07/21 08:47:17;;;;;;;;;5.40;5.40;;;;;;;;5077567;27;46207;-46
2023/07/21 08:49:42;;;;;;;;;6.25;5.25;;;;;;;;5075162;27;45463;-47
2023/07/21 08:52:07;;;;;;;;;7.00;5.00;;;;;;;;5075801;27;46071;-49
2023/07/21 08:54:32;;;;;;;;;6.00;5.75;;;;;;;;5075674;27;45446;-45
2023/07/21 08:56:58;;;;;;;;;4.25;4.25;;;;;;;;5075637;27;45421;-46
2023/07/21 08:59:23;;;;;;;;;4.00;3.75;;;;;;;;5075296;27;45629;-47
2023/07/21 09:01:48;;;;;;;;;3.25;3.25;;;;;;;;5075629;27;45443;-45
2023/07/21 09:04:18;;;;;;;;;2.50;2.50;;;;;;;;5075658;27;45454;-45
2023/07/21 09:06:48;;;;;;;;;3.20;2.00;;;;;;;;5075008;27;46204;-47
2023/07/21 09:09:16;;;;;;;;;2.80;2.80;;;;;;;;5075314;27;45489;-46
2023/07/21 09:11:41;;;;;;;;;3.60;2.00;;;;;;;;5075749;27;45477;-47
2023/07/21 09:14:07;;;;;;;;;2.75;2.75;;;;;;;;5073857;27;45437;-43
2023/07/21 09:16:32;;;;;;;;;2.75;2.50;;;;;;;;5073064;27;45649;-44
2023/07/21 09:18:57;;;;;;;;;3.00;2.00;;;;;;;;5075622;27;45468;-42
2023/07/21 09:21:23;;;;;;;;;4.50;3.00;;;;;;;;5075336;27;45394;-45
2023/07/21 09:23:49;;;;;;;;;4.00;4.00;;;;;;;;5075617;27;45397;-40
2023/07/21 09:26:22;;;;;;;;;6.00;4.50;;;;;;;;5074764;27;46168;-47
2023/07/21 09:28:47;;;;;;;;;6.00;6.00;;;;;;;;5074880;28;45540;-45
2023/07/21 09:31:13;;;;;;;;;2.50;2.50;;;;;;;;5080810;27;45802;-43
2023/07/21 09:33:39;;;;;;;;;4.00;2.50;;;;;;;;5073213;27;45439;-43
2023/07/21 09:36:08;;;;;;;;;4.60;2.80;;;;;;;;5074741;27;46423;-43
2023/07/21 09:38:34;;;;;;;;;3.00;3.00;;;;;;;;5074866;27;45289;-42
2023/07/21 09:41:03;;;;;;;;;3.20;3.20;;;;;;;;5074971;27;45603;-42
2023/07/21 09:43:29;;;;;;;;;5.40;3.60;;;;;;;;5088586;27;45431;-43
2023/07/21 09:45:56;;;;;;;;;3.40;3.40;;;;;;;;5074776;27;46284;-45
2023/07/21 09:48:22;;;;;;;;;3.80;3.80;;;;;;;;5077437;27;45203;-45
2023/07/21 09:50:47;;;;;;;;;2.50;2.50;;;;;;;;5075543;27;45652;-44
2023/07/21 09:53:16;;;;;;;;;2.50;2.50;;;;;;;;5074964;27;45293;-46
2023/07/21 09:55:43;;;;;;;;;1.80;1.80;;;;;;;;5080389;27;46172;-47
2023/07/21 09:58:09;;;;;;;;;2.00;2.00;;;;;;;;5074719;27;45422;-48
2023/07/21 10:00:39;;;;;;;;;3.80;3.80;;;;;;;;5090550;27;45536;-47
2023/07/21 10:03:05;;;;;;;;;2.80;2.80;;;;;;;;5094875;27;45337;-48
2023/07/21 10:05:32;;;;;;;;;2.40;2.40;;;;;;;;5093721;27;45621;-47
2023/07/21 10:07:58;;;;;;;;;3.00;3.00;;;;;;;;5093735;27;45563;-44
2023/07/21 10:10:23;;;;;;;;;4.75;4.75;;;;;;;;5094330;27;45375;-47
2023/07/21 10:12:51;;;;;;;;;9.25;6.00;;;;;;;;5077235;27;45437;-49
2023/07/21 10:15:17;;;;;;;;;8.40;7.20;;;;;;;;5073454;28;46147;-49
2023/07/21 10:17:56;;;;;;;;;5.60;4.80;;;;;;;;5073519;28;45351;-45
2023/07/21 10:20:21;;;;;;;;;5.00;3.60;;;;;;;;5073931;28;45579;-49
2023/07/21 10:22:56;;;;;;;;;7.50;7.50;;;;;;;;5074373;28;45260;-49
2023/07/21 10:25:24;;;;;;;;;5.00;5.00;;;;;;;;5073512;28;46545;-48
2023/07/21 10:28:01;;;;;;;;;4.80;4.80;;;;;;;;5073762;28;45480;-45
2023/07/21 10:30:26;;;;;;;;;5.60;5.60;;;;;;;;5074327;28;45407;-50
2023/07/21 10:32:52;;;;;;;;;5.25;5.25;;;;;;;;5085990;27;45455;-48
2023/07/21 10:35:35;;;;;;;;;5.40;5.40;;;;;;;;5093989;27;47230;-45
2023/07/21 10:38:15;;;;;;;;;8.00;6.40;;;;;;;;5094257;27;45453;-46
2023/07/21 10:40:44;;;;;;;;;4.80;4.00;;;;;;;;5094627;27;45397;-45
2023/07/21 10:43:09;;;;;;;;;5.80;5.80;;;;;;;;5094204;27;45683;-46
2023/07/21 10:45:35;;;;;;;;;14.00;12.00;;;;;;;;5094198;27;45751;-45
2023/07/21 10:48:12;;;;;;;;;4.75;4.75;;;;;;;;5094254;27;45432;-48
2023/07/21 10:50:40;;;;;;;;;4.80;3.80;;;;;;;;5094451;27;45433;-47
2023/07/21 10:53:06;;;;;;;;;5.00;5.00;;;;;;;;5093008;27;45758;-49
2023/07/21 10:55:31;;;;;;;;;7.25;5.75;;;;;;;;5094171;27;45497;-43
2023/07/21 10:57:57;;;;;;;;;5.00;5.00;;;;;;;;5093798;27;45485;-47
2023/07/21 11:00:22;;;;;;;;;6.25;6.25;;;;;;;;5094295;27;45422;-45
2023/07/21 11:02:52;;;;;;;;;3.00;3.00;;;;;;;;5093989;27;45866;-47
2023/07/21 11:05:17;;;;;;;;;4.00;3.40;;;;;;;;5093835;27;46272;-43
2023/07/21 11:07:43;;;;;;;;;3.75;3.75;;;;;;;;5093901;27;45421;-43
2023/07/21 11:10:08;;;;;;;;;5.25;5.25;;;;;;;;5093427;27;45514;-46
2023/07/21 11:12:33;;;;;;;;;2.75;2.75;;;;;;;;5094372;27;45589;-45
2023/07/21 11:14:58;;;;;;;;;4.25;3.00;;;;;;;;5094167;27;46237;-47
2023/07/21 11:17:23;;;;;;;;;4.25;4.00;;;;;;;;5093840;27;45385;-45
2023/07/21 11:19:49;;;;;;;;;4.50;4.00;;;;;;;;5075494;27;45462;-43
2023/07/21 11:22:14;;;;;;;;;4.50;4.50;;;;;;;;5093853;27;45449;-44
2023/07/21 11:24:39;;;;;;;;;5.50;4.75;;;;;;;;5093934;27;46345;-50
2023/07/21 11:27:05;;;;;;;;;4.75;4.75;;;;;;;;5093872;27;45469;-43
2023/07/21 11:29:31;;;;;;;;;4.00;4.00;;;;;;;;5093795;27;45582;-44
2023/07/21 11:31:57;;;;;;;;;7.60;7.60;;;;;;;;5093624;27;45435;-45
2023/07/21 11:34:23;;;;;;;;;5.00;5.00;;;;;;;;5093836;27;46292;-47
2023/07/21 11:36:52;;;;;;;;;6.60;6.60;;;;;;;;5093582;27;45594;-45
2023/07/21 11:39:21;;;;;;;;;4.80;4.80;;;;;;;;5097698;27;45455;-45
2023/07/21 11:41:48;;;;;;;;;13.40;11.60;;;;;;;;5096193;27;45326;-44
2023/07/21 11:44:18;;;;;;;;;5.60;2.60;;;;;;;;5096854;27;45948;-44
2023/07/21 11:46:55;;;;;;;;;19.60;16.60;;;;;;;;5096541;27;45582;-43
2023/07/21 11:49:22;;;;;;;;;4.40;3.40;;;;;;;;5096884;27;45505;-43
2023/07/21 11:51:48;;;;;;;;;4.40;2.40;;;;;;;;5096798;27;45745;-44
2023/07/21 11:54:37;;;;;;;;;6.20;4.80;;;;;;;;5095772;27;45540;-42
2023/07/21 11:57:02;;;;;;;;;4.00;3.20;;;;;;;;5031031;28;45514;-44
2023/07/21 11:59:28;;;;;;;;;6.00;5.00;;;;;;;;5032754;28;45462;-42
2023/07/21 12:01:54;;;;;;;;;4.80;4.20;;;;;;;;5033737;28;45435;-44
2023/07/21 12:04:20;;;;;;;;;3.20;3.20;;;;;;;;5033194;28;46064;-42
2023/07/21 12:06:45;;;;;;;;;3.75;3.00;;;;;;;;5033866;28;45590;-45
2023/07/21 12:09:12;;;;;;;;;4.00;4.00;;;;;;;;5033191;28;45414;-42
2023/07/21 12:11:37;;;;;;;;;3.00;3.00;;;;;;;;5034049;28;45487;-42
2023/07/21 12:14:03;;;;;;;;;4.25;3.00;;;;;;;;5033187;28;46003;-42
2023/07/21 12:16:29;;;;;;;;;3.25;3.25;;;;;;;;5032566;28;45404;-41
2023/07/21 12:18:56;;;;;;;;;6.40;4.00;;;;;;;;5033230;28;45444;-41
2023/07/21 12:21:22;;;;;;;;;5.80;3.00;;;;;;;;5016916;28;45946;-43
2023/07/21 12:23:48;;;;;;;;;2.80;2.80;;;;;;;;5033009;28;46216;-44
2023/07/21 12:26:13;;;;;;;;;5.00;5.00;;;;;;;;5032958;28;45907;-46
2023/07/21 12:28:38;;;;;;;;;5.00;3.75;;;;;;;;5032600;28;45464;-41
2023/07/21 12:31:04;;;;;;;;;7.50;4.75;;;;;;;;5032595;28;45614;-44
2023/07/21 12:33:29;;;;;;;;;4.75;4.00;;;;;;;;5048611;27;46069;-44
2023/07/21 12:35:54;;;;;;;;;6.50;3.50;;;;;;;;5096080;27;45227;-46
2023/07/21 12:38:20;;;;;;;;;4.00;4.00;;;;;;;;5096103;27;45330;-43
2023/07/21 12:40:45;;;;;;;;;4.50;4.50;;;;;;;;5096394;27;45516;-45
2023/07/21 12:43:10;;;;;;;;;2.75;2.25;;;;;;;;5095823;27;47754;-47
2023/07/21 12:45:35;;;;;;;;;4.00;4.00;;;;;;;;5096278;27;45394;-48
2023/07/21 12:48:01;;;;;;;;;6.75;5.75;;;;;;;;5095352;27;45401;-41
2023/07/21 12:50:26;;;;;;;;;3.50;2.25;;;;;;;;5095977;27;45460;-47
2023/07/21 12:52:51;;;;;;;;;6.25;4.25;;;;;;;;5094494;27;45453;-47
2023/07/21 12:55:17;;;;;;;;;2.25;2.25;;;;;;;;5095681;27;45509;-45
2023/07/21 12:57:43;;;;;;;;;3.00;3.00;;;;;;;;5096062;27;45444;-43
2023/07/21 13:00:11;;;;;;;;;5.00;4.00;;;;;;;;5095865;27;45516;-48
2023/07/21 13:02:36;;;;;;;;;4.20;3.60;;;;;;;;5095756;27;46429;-51
2023/07/21 13:05:01;;;;;;;;;6.25;5.00;;;;;;;;5095985;27;45444;-51
2023/07/21 13:07:27;;;;;;;;;4.50;4.00;;;;;;;;5096046;27;45455;-50
2023/07/21 13:09:52;;;;;;;;;3.00;3.00;;;;;;;;5096351;27;45885;-45
2023/07/21 13:12:17;;;;;;;;;3.00;3.00;;;;;;;;5095148;27;46307;-49
2023/07/21 13:14:42;;;;;;;;;3.75;3.75;;;;;;;;5095976;27;45842;-51
2023/07/21 13:17:07;;;;;;;;;3.00;3.00;;;;;;;;5095751;27;45545;-51
2023/07/21 13:19:33;;;;;;;;;4.00;4.00;;;;;;;;5096300;27;45765;-49
2023/07/21 13:21:58;;;;;;;;;5.75;4.50;;;;;;;;5095509;27;45429;-49
2023/07/21 13:24:24;;;;;;;;;5.25;3.75;;;;;;;;5092837;27;45573;-43
2023/07/21 13:26:50;;;;;;;;;4.50;4.50;;;;;;;;5092492;27;45449;-42
2023/07/21 13:29:15;;;;;;;;;4.00;4.00;;;;;;;;5092932;27;45500;-42
2023/07/21 13:31:40;;;;;;;;;3.75;3.75;;;;;;;;5092163;27;46126;-43
2023/07/21 13:34:06;;;;;;;;;5.00;4.00;;;;;;;;5092442;27;45472;-45
2023/07/21 13:36:31;;;;;;;;;5.00;5.00;;;;;;;;5092611;27;45800;-52
2023/07/21 13:38:57;;;;;;;;;3.75;3.00;;;;;;;;5093049;27;45516;-48
2023/07/21 13:41:22;;;;;;;;;3.75;3.75;;;;;;;;5092519;27;46549;-42
2023/07/21 13:43:47;;;;;;;;;2.75;2.75;;;;;;;;5092208;27;45445;-45
2023/07/21 13:46:12;;;;;;;;;6.25;4.00;;;;;;;;5092141;27;45433;-51
2023/07/21 13:48:37;;;;;;;;;2.75;2.75;;;;;;;;5091702;27;45943;-46
2023/07/21 13:51:03;;;;;;;;;4.75;3.50;;;;;;;;5092646;27;47274;-48
2023/07/21 13:53:28;;;;;;;;;3.00;3.00;;;;;;;;5073581;27;45302;-47
2023/07/21 13:55:53;;;;;;;;;2.75;2.75;;;;;;;;5091923;27;45601;-44
2023/07/21 13:58:18;;;;;;;;;4.00;4.00;;;;;;;;5093362;27;45886;-44
2023/07/21 14:00:44;;;;;;;;;6.00;5.00;;;;;;;;5090664;27;45492;-48
2023/07/21 14:03:09;;;;;;;;;4.25;3.75;;;;;;;;5089197;27;46381;-41
2023/07/21 14:05:34;;;;;;;;;3.00;2.50;;;;;;;;5092723;27;45569;-46
2023/07/21 14:08:00;;;;;;;;;4.50;3.00;;;;;;;;5094781;27;45387;-41
2023/07/21 14:10:26;;;;;;;;;3.00;3.00;;;;;;;;5094756;27;45838;-42
2023/07/21 14:12:51;;;;;;;;;3.00;3.00;;;;;;;;5094318;27;45440;-42
2023/07/21 14:15:16;;;;;;;;;4.00;4.00;;;;;;;;5094595;27;45441;-44
2023/07/21 14:17:42;;;;;;;;;3.75;3.75;;;;;;;;5094676;27;45459;-44
2023/07/21 14:20:13;;;;;;;;;5.25;4.50;;;;;;;;5093887;27;45307;-40
2023/07/21 14:22:38;;;;;;;;;4.00;3.60;;;;;;;;5094116;27;45628;-41
2023/07/21 14:25:03;;;;;;;;;4.00;4.00;;;;;;;;5094364;27;45529;-40
2023/07/21 14:27:28;;;;;;;;;1.50;1.50;;;;;;;;5095173;27;45463;-41
2023/07/21 14:29:54;;;;;;;;;3.75;3.50;;;;;;;;5094276;27;46032;-42
2023/07/21 14:32:19;;;;;;;;;5.25;4.00;;;;;;;;5093953;27;45478;-43
2023/07/21 14:34:44;;;;;;;;;6.00;5.25;;;;;;;;5094254;27;45442;-42
2023/07/21 14:37:09;;;;;;;;;6.00;5.00;;;;;;;;5094543;27;45599;-42